createdAt,value
2023-01-01T00:06:17.629Z,98470.00
2023-01-01T00:12:58.518Z,98466.00
2023-01-01T00:19:50.958Z,98455.00
2023-01-01T00:26:40.074Z,98447.00
2023-01-01T00:33:26.610Z,98469.00
2023-01-01T00:36:38.435Z,98437.00
2023-01-01T00:39:23.633Z,98445.00
2023-01-01T00:46:28.588Z,98430.00
2023-01-01T00:53:20.635Z,98450.00
2023-01-01T01:00:19.653Z,98446.00
2023-01-01T01:07:11.927Z,98426.00
2023-01-01T01:14:01.467Z,98446.00
2023-01-01T01:21:09.097Z,98422.00
2023-01-01T01:32:05.247Z,98447.00
2023-01-01T01:38:54.935Z,98438.00
2023-01-01T01:46:02.988Z,98441.00
2023-01-01T01:53:05.142Z,98445.00
2023-01-01T02:00:19.987Z,98442.00
2023-01-01T02:07:06.860Z,98430.00
2023-01-01T02:13:57.517Z,98448.00
2023-01-01T02:21:04.602Z,98453.00
2023-01-01T02:28:13.347Z,98448.00
2023-01-01T02:31:12.218Z,98419.00
2023-01-01T02:42:15.228Z,98443.00
2023-01-01T02:49:32.078Z,98438.00
2023-01-01T02:56:38.322Z,98419.00
2023-01-01T03:03:35.212Z,98444.00
2023-01-01T03:10:32.182Z,98441.00
2023-01-01T03:17:21.512Z,98470.00
2023-01-01T03:24:11.402Z,98475.00
2023-01-01T03:35:38.973Z,98464.00
2023-01-01T03:39:45.917Z,98469.00
2023-01-01T03:46:39.198Z,98467.00
2023-01-01T03:53:39.458Z,98493.00
2023-01-01T04:00:32.965Z,98474.00
2023-01-01T04:07:34.212Z,98484.00
2023-01-01T04:14:41.839Z,98483.00
2023-01-01T04:17:16.232Z,98483.00
2023-01-01T04:19:55.064Z,98464.00
2023-01-01T04:26:42.212Z,98497.00
2023-01-01T04:42:00.480Z,98474.00
2023-01-01T04:49:09.616Z,98490.00
2023-01-01T04:56:04.522Z,98479.00
2023-01-01T05:02:49.975Z,98502.00
2023-01-01T05:09:38.193Z,98498.00
2023-01-01T05:16:30.019Z,98494.00
2023-01-01T05:23:21.515Z,98495.00
2023-01-01T05:30:15.107Z,98530.00
2023-01-01T05:37:07.492Z,98518.00
2023-01-01T05:40:58.209Z,98524.00
2023-01-01T05:47:43.450Z,98551.00
2023-01-01T05:54:38.663Z,98558.00
2023-01-01T05:58:34.721Z,98557.00
2023-01-01T06:01:21.675Z,98541.00
2023-01-01T06:08:12.670Z,98540.00
2023-01-01T06:15:21.493Z,98535.00
2023-01-01T06:22:31.874Z,98551.00
2023-01-01T06:29:40.513Z,98542.00
2023-01-01T06:36:34.798Z,98556.00
2023-01-01T06:43:15.081Z,98561.00
2023-01-01T06:50:35.386Z,98573.00
2023-01-01T06:54:35.666Z,98573.00
2023-01-01T06:57:50.073Z,98578.00
2023-01-01T07:04:37.516Z,98572.00
2023-01-01T07:11:32.483Z,98586.00
2023-01-01T07:18:22.206Z,98573.00
2023-01-01T07:25:36.514Z,98572.00
2023-01-01T07:33:04.493Z,98577.00
2023-01-01T07:36:52.324Z,98581.00
2023-01-01T07:43:41.468Z,98564.00
2023-01-01T07:50:34.683Z,98565.00
2023-01-01T07:57:15.624Z,98578.00
2023-01-01T08:15:48.083Z,98585.00
2023-01-01T08:19:37.233Z,98620.00
2023-01-01T08:26:34.820Z,98622.00
2023-01-01T08:30:22.257Z,98629.00
2023-01-01T08:37:20.041Z,98621.00
2023-01-01T08:41:14.299Z,98637.00
2023-01-01T08:47:56.893Z,98641.00
2023-01-01T09:02:01.956Z,98660.00
2023-01-01T09:09:24.393Z,98625.00
2023-01-01T09:13:39.111Z,98658.00
2023-01-01T09:20:28.147Z,98680.00
2023-01-01T09:27:08.194Z,98669.00
2023-01-01T09:33:55.099Z,98670.00
2023-01-01T09:45:21.323Z,98668.00
2023-01-01T09:52:21.672Z,98676.00
2023-01-01T10:07:50.156Z,98657.00
2023-01-01T10:14:49.643Z,98664.00
2023-01-01T10:18:36.008Z,98656.00
2023-01-01T10:25:36.994Z,98656.00
2023-01-01T10:32:46.980Z,98645.00
2023-01-01T10:40:05.022Z,98671.00
2023-01-01T10:51:26.333Z,98648.00
2023-01-01T10:58:28.787Z,98658.00
2023-01-01T11:05:23.413Z,98658.00
2023-01-01T11:13:02.860Z,98677.00
2023-01-01T11:20:30.875Z,98661.00
2023-01-01T11:27:26.862Z,98667.00
2023-01-01T11:34:33.752Z,98656.00
2023-01-01T11:45:40.144Z,98644.00
2023-01-01T11:53:01.087Z,98610.00
2023-01-01T11:56:53.070Z,98620.00
2023-01-01T12:03:57.756Z,98600.00
2023-01-01T12:11:03.904Z,98576.00
2023-01-01T12:18:04.199Z,98556.00
2023-01-01T12:24:57.939Z,98576.00
2023-01-01T12:31:55.059Z,98531.00
2023-01-01T12:39:32.215Z,98566.00
2023-01-01T12:43:20.808Z,98566.00
2023-01-01T12:50:51.453Z,98552.00
2023-01-01T12:54:40.183Z,98566.00
2023-01-01T13:01:39.735Z,98558.00
2023-01-01T13:08:37.755Z,98558.00
2023-01-01T13:20:34.726Z,98535.00
2023-01-01T13:24:39.047Z,98552.00
2023-01-01T13:32:11.932Z,98560.00
2023-01-01T13:36:03.668Z,98552.00
2023-01-01T13:52:14.183Z,98522.00
2023-01-01T13:56:00.600Z,98539.00
2023-01-01T14:02:59.749Z,98535.00
2023-01-01T14:09:50.405Z,98545.00
2023-01-01T14:16:47.306Z,98516.00
2023-01-01T14:20:32.731Z,98517.00
2023-01-01T14:23:16.996Z,98503.00
2023-01-01T14:35:06.441Z,98516.00
2023-01-01T15:11:04.657Z,98544.00
2023-01-01T15:14:35.297Z,98534.00
2023-01-01T15:26:04.655Z,98522.00
2023-01-01T15:30:09.834Z,98522.00
2023-01-01T15:37:20.103Z,98525.00
2023-01-01T15:44:27.702Z,98526.00
2023-01-01T15:47:36.273Z,98523.00
2023-01-01T15:50:24.907Z,98511.00
2023-01-01T15:57:26.857Z,98493.00
2023-01-01T16:04:46.244Z,98534.00
2023-01-01T16:11:35.433Z,98502.00
2023-01-01T16:18:27.402Z,98499.00
2023-01-01T16:25:35.485Z,98476.00
2023-01-01T16:29:46.324Z,98502.00
2023-01-01T16:36:39.013Z,98494.00
2023-01-01T16:43:43.932Z,98461.00
2023-01-01T16:47:35.738Z,98476.00
2023-01-01T16:50:16.300Z,98453.00
2023-01-01T16:56:47.862Z,98448.00
2023-01-01T17:03:40.788Z,98453.00
2023-01-01T17:10:30.632Z,98462.00
2023-01-01T17:17:20.013Z,98450.00
2023-01-01T17:31:40.294Z,98452.00
2023-01-01T18:21:55.312Z,98432.00
2023-01-01T18:35:57.776Z,98426.00
2023-01-01T18:42:48.246Z,98433.00
2023-01-01T18:49:46.218Z,98445.00
2023-01-01T18:56:51.792Z,98437.00
2023-01-01T19:03:53.207Z,98454.00
2023-01-01T19:27:07.339Z,98442.00
2023-01-01T19:34:13.490Z,98444.00
2023-01-01T20:10:13.574Z,98385.00
2023-01-01T20:17:15.320Z,98382.00
2023-01-01T21:02:32.419Z,98358.00
2023-01-01T21:13:29.990Z,98345.00
2023-01-01T21:20:23.863Z,98343.00
2023-01-01T21:31:49.028Z,98377.00
2023-01-01T21:39:00.464Z,98368.00
2023-01-01T21:45:56.787Z,98387.00
2023-01-01T21:52:44.113Z,98361.00
2023-01-01T21:59:51.953Z,98346.00
2023-01-01T22:06:44.491Z,98356.00
2023-01-01T22:13:54.605Z,98388.00
2023-01-01T22:19:47.512Z,98390.00
2023-01-01T22:26:55.781Z,98373.00
2023-01-01T22:31:06.317Z,98380.00
2023-01-01T22:38:47.883Z,98363.00
2023-01-01T22:42:33.595Z,98380.00
2023-01-01T22:53:49.448Z,98380.00
2023-01-01T22:57:24.285Z,98390.00
2023-01-01T23:04:20.971Z,98382.00
2023-01-01T23:11:29.166Z,98369.00
2023-01-01T23:15:41.512Z,98369.00
2023-01-01T23:22:42.225Z,98353.00
2023-01-01T23:34:15.351Z,98350.00
2023-01-01T23:41:28.767Z,98354.00
2023-01-01T23:45:36.955Z,98345.00
2023-01-01T23:52:49.370Z,98341.00
2023-01-01T23:59:36.563Z,98314.00
